createdAt,value
2018-08-23T00:01:27.858Z,23.92
2018-08-23T00:04:02.565Z,23.86
2018-08-23T00:06:32.980Z,23.88
2018-08-23T00:09:02.597Z,23.86
2018-08-23T00:11:34.957Z,23.87
2018-08-23T00:14:04.609Z,23.82
2018-08-23T00:16:39.110Z,23.79
2018-08-23T00:19:08.903Z,23.73
2018-08-23T00:21:46.138Z,23.69
2018-08-23T00:24:18.177Z,23.68
2018-08-23T00:26:51.071Z,23.68
2018-08-23T00:29:25.995Z,23.65
2018-08-23T00:31:59.904Z,23.64
2018-08-23T00:34:30.895Z,23.59
2018-08-23T00:37:01.022Z,23.53
2018-08-23T00:39:31.101Z,23.54
2018-08-23T00:42:07.080Z,23.54
2018-08-23T00:44:59.107Z,23.48
2018-08-23T00:47:30.664Z,23.40
2018-08-23T00:50:00.575Z,23.35
2018-08-23T00:52:41.615Z,23.31
2018-08-23T00:55:25.160Z,23.29
2018-08-23T00:57:54.748Z,23.28
2018-08-23T01:00:25.706Z,23.24
2018-08-23T01:03:02.578Z,23.18
2018-08-23T01:05:38.156Z,23.17
2018-08-23T01:08:09.324Z,23.12
2018-08-23T01:10:39.938Z,23.11
2018-08-23T01:13:09.574Z,23.06
2018-08-23T01:15:39.424Z,22.98
2018-08-23T01:18:14.319Z,22.97
2018-08-23T01:20:44.605Z,23.01
2018-08-23T01:23:14.302Z,23.00
2018-08-23T01:25:45.362Z,22.98
2018-08-23T01:28:15.075Z,23.00
2018-08-23T01:30:45.502Z,23.00
2018-08-23T01:33:18.069Z,23.08
2018-08-23T01:35:48.694Z,23.03
2018-08-23T01:38:19.214Z,22.90
2018-08-23T01:40:48.802Z,22.81
2018-08-23T01:43:18.651Z,22.67
2018-08-23T01:45:48.231Z,22.57
2018-08-23T01:48:17.864Z,22.58
2018-08-23T01:50:47.430Z,22.59
2018-08-23T01:53:19.513Z,22.58
2018-08-23T01:55:49.127Z,22.57
2018-08-23T01:58:18.740Z,22.51
2018-08-23T02:00:56.386Z,22.51
2018-08-23T02:03:25.918Z,22.47
2018-08-23T02:05:55.507Z,22.50
2018-08-23T02:08:25.121Z,22.48
2018-08-23T02:10:54.739Z,22.36
2018-08-23T02:13:28.460Z,22.21
2018-08-23T02:16:02.728Z,22.19
2018-08-23T02:18:33.043Z,22.17
2018-08-23T02:21:07.853Z,22.21
2018-08-23T02:23:47.632Z,22.33
2018-08-23T02:26:17.247Z,22.33
2018-08-23T02:28:49.962Z,22.30
2018-08-23T02:31:19.988Z,22.24
2018-08-23T02:33:49.510Z,22.20
2018-08-23T02:36:19.225Z,22.24
2018-08-23T02:38:51.767Z,22.26
2018-08-23T02:41:21.309Z,22.23
2018-08-23T02:43:51.057Z,22.21
2018-08-23T02:46:20.618Z,22.19
2018-08-23T02:48:52.623Z,22.15
2018-08-23T02:51:38.181Z,22.08
2018-08-23T02:54:11.239Z,22.01
2018-08-23T02:56:44.032Z,22.01
2018-08-23T02:59:13.641Z,21.99
2018-08-23T03:01:48.573Z,22.04
2018-08-23T03:04:24.106Z,22.08
2018-08-23T03:07:04.248Z,22.09
2018-08-23T03:09:39.956Z,22.10
2018-08-23T03:12:11.144Z,22.09
2018-08-23T03:14:41.809Z,22.02
2018-08-23T03:17:25.420Z,21.96
2018-08-23T03:20:15.381Z,21.89
2018-08-23T03:22:46.154Z,21.83
2018-08-23T03:25:19.228Z,21.80
2018-08-23T03:27:48.734Z,21.76
2018-08-23T03:30:19.242Z,21.76
2018-08-23T03:32:48.767Z,21.81
2018-08-23T03:35:18.356Z,21.87
2018-08-23T03:37:47.882Z,21.78
2018-08-23T03:40:18.043Z,21.72
2018-08-23T03:42:47.520Z,21.58
2018-08-23T03:45:22.298Z,21.54
2018-08-23T03:47:53.160Z,21.51
2018-08-23T03:50:23.686Z,21.41
2018-08-23T03:52:54.722Z,21.39
2018-08-23T03:55:26.270Z,21.34
2018-08-23T03:58:01.703Z,21.38
2018-08-23T04:00:36.712Z,21.44
2018-08-23T04:03:10.157Z,21.47
2018-08-23T04:05:39.711Z,21.44
2018-08-23T04:08:09.265Z,21.40
2018-08-23T04:10:38.937Z,21.40
2018-08-23T04:13:08.537Z,21.33
2018-08-23T04:15:38.031Z,21.33
2018-08-23T04:18:13.215Z,21.28
2018-08-23T04:20:56.341Z,21.25
2018-08-23T04:23:26.020Z,21.28
2018-08-23T04:25:55.643Z,21.34
2018-08-23T04:28:25.245Z,21.38
2018-08-23T04:30:54.781Z,21.38
2018-08-23T04:33:24.419Z,21.40
2018-08-23T04:35:54.155Z,21.37
2018-08-23T04:38:24.012Z,21.30
2018-08-23T04:40:58.767Z,21.27
2018-08-23T04:43:28.463Z,21.26
2018-08-23T04:45:58.210Z,21.23
2018-08-23T04:48:27.779Z,21.26
2018-08-23T04:50:57.310Z,21.23
2018-08-23T04:53:26.860Z,21.17
2018-08-23T04:55:56.609Z,21.17
2018-08-23T04:58:26.145Z,21.23
2018-08-23T05:00:55.712Z,21.22
2018-08-23T05:03:25.481Z,21.20
2018-08-23T05:05:55.036Z,21.23
2018-08-23T05:08:24.562Z,21.26
2018-08-23T05:10:54.263Z,21.31
2018-08-23T05:13:24.052Z,21.33
2018-08-23T05:15:53.751Z,21.29
2018-08-23T05:18:23.312Z,21.28
2018-08-23T05:20:52.913Z,21.24
2018-08-23T05:23:22.581Z,21.19
2018-08-23T05:25:56.996Z,21.15
2018-08-23T05:28:26.581Z,21.09
2018-08-23T05:30:56.150Z,21.12
2018-08-23T05:33:25.794Z,21.11
2018-08-23T05:35:55.370Z,21.10
2018-08-23T05:38:25.277Z,21.10
2018-08-23T05:41:00.678Z,21.12
2018-08-23T05:43:30.287Z,21.13
2018-08-23T05:46:00.255Z,21.18
2018-08-23T05:48:30.006Z,21.23
2018-08-23T05:51:15.171Z,21.24
2018-08-23T05:53:46.944Z,21.26
2018-08-23T05:56:18.627Z,21.33
2018-08-23T05:58:48.378Z,21.38
2018-08-23T06:01:22.021Z,21.40
2018-08-23T06:03:51.739Z,21.46
2018-08-23T06:06:21.606Z,21.51
2018-08-23T06:08:55.657Z,21.56
2018-08-23T06:11:25.497Z,21.58
2018-08-23T06:13:55.200Z,21.64
2018-08-23T06:16:24.795Z,21.73
2018-08-23T06:18:54.337Z,21.80
2018-08-23T06:21:23.869Z,21.90
2018-08-23T06:23:54.422Z,22.02
2018-08-23T06:26:40.119Z,22.14
2018-08-23T06:29:11.756Z,22.22
2018-08-23T06:31:57.868Z,22.23
2018-08-23T06:34:29.601Z,22.27
2018-08-23T06:36:59.640Z,22.43
2018-08-23T06:39:29.299Z,22.50
2018-08-23T06:42:00.477Z,22.61
2018-08-23T06:44:47.473Z,22.75
2018-08-23T06:47:20.543Z,22.89
2018-08-23T06:49:51.333Z,22.99
2018-08-23T06:53:01.447Z,23.09
2018-08-23T06:55:35.856Z,23.09
2018-08-23T06:58:06.482Z,23.12
2018-08-23T07:00:36.403Z,23.21
2018-08-23T07:03:06.101Z,23.21
2018-08-23T07:05:35.950Z,23.13
2018-08-23T07:08:05.965Z,23.09
2018-08-23T07:10:35.607Z,23.21
2018-08-23T07:13:05.414Z,23.31
2018-08-23T07:15:34.933Z,23.31
2018-08-23T07:18:09.006Z,23.32
2018-08-23T07:20:38.634Z,23.06
2018-08-23T07:23:24.122Z,22.98
2018-08-23T07:25:53.910Z,23.11
2018-08-23T07:28:23.534Z,23.21
2018-08-23T07:30:55.862Z,23.37
2018-08-23T07:33:25.861Z,23.40
2018-08-23T07:36:17.557Z,23.49
2018-08-23T07:38:49.955Z,23.81
2018-08-23T07:41:21.274Z,23.91
2018-08-23T07:43:50.885Z,24.11
2018-08-23T07:46:20.918Z,24.34
2018-08-23T07:48:50.525Z,24.65
2018-08-23T07:51:24.696Z,24.97
2018-08-23T07:53:57.646Z,25.21
2018-08-23T07:56:28.504Z,25.40
2018-08-23T07:58:58.385Z,25.58
2018-08-23T08:01:30.413Z,25.63
2018-08-23T08:04:00.910Z,25.52
2018-08-23T08:06:30.481Z,25.40
2018-08-23T08:09:01.132Z,25.61
2018-08-23T08:11:49.534Z,25.88
2018-08-23T08:14:25.834Z,25.75
2018-08-23T08:16:59.504Z,25.87
2018-08-23T08:19:29.873Z,25.75
2018-08-23T08:21:59.821Z,25.66
2018-08-23T08:24:29.730Z,25.86
2018-08-23T08:26:59.311Z,26.03
2018-08-23T08:29:34.386Z,26.21
2018-08-23T08:32:04.333Z,26.40
2018-08-23T08:34:33.887Z,26.34
2018-08-23T08:37:03.443Z,26.39
2018-08-23T08:39:33.288Z,26.56
2018-08-23T08:42:03.195Z,26.39
2018-08-23T08:44:32.912Z,26.40
2018-08-23T08:47:02.458Z,26.57
2018-08-23T08:49:43.663Z,26.85
2018-08-23T08:52:13.635Z,27.14
2018-08-23T08:54:43.259Z,27.29
2018-08-23T08:57:12.959Z,27.40
2018-08-23T08:59:43.601Z,27.22
2018-08-23T09:02:13.241Z,27.38
2018-08-23T09:04:43.006Z,27.29
2018-08-23T09:07:12.754Z,27.23
2018-08-23T09:09:44.668Z,27.56
2018-08-23T09:12:20.418Z,27.91
2018-08-23T09:14:50.821Z,28.01
2018-08-23T09:17:44.273Z,28.13
2018-08-23T09:20:19.226Z,27.94
2018-08-23T09:22:49.983Z,27.95
2018-08-23T09:25:42.730Z,28.04
2018-08-23T09:28:12.563Z,27.94
2018-08-23T09:30:42.556Z,28.02
2018-08-23T09:33:16.178Z,28.34
2018-08-23T09:35:45.715Z,28.29
2018-08-23T09:38:16.108Z,28.08
2018-08-23T09:40:45.657Z,27.93
2018-08-23T09:43:15.240Z,28.02
2018-08-23T09:45:44.871Z,28.40
2018-08-23T09:48:14.471Z,28.47
2018-08-23T09:50:44.374Z,28.61
2018-08-23T09:53:19.886Z,28.84
2018-08-23T09:55:51.426Z,28.92
2018-08-23T09:58:27.570Z,28.74
2018-08-23T10:01:02.685Z,28.72
2018-08-23T10:03:38.788Z,29.05
2018-08-23T10:06:13.896Z,29.47
2018-08-23T10:08:48.739Z,29.34
2018-08-23T10:11:23.698Z,29.09
2018-08-23T10:13:58.669Z,29.35
2018-08-23T10:16:33.405Z,29.62
2018-08-23T10:19:08.517Z,29.69
2018-08-23T10:21:46.713Z,29.83
2018-08-23T10:24:21.498Z,29.98
2018-08-23T10:26:51.362Z,29.87
2018-08-23T10:29:21.289Z,29.85
2018-08-23T10:31:50.826Z,29.81
2018-08-23T10:34:20.715Z,29.72
2018-08-23T10:36:50.254Z,29.42
2018-08-23T10:39:19.788Z,29.42
2018-08-23T10:41:49.970Z,29.68
2018-08-23T10:44:19.620Z,29.35
2018-08-23T10:46:54.367Z,29.08
2018-08-23T10:49:24.076Z,28.76
2018-08-23T10:51:53.694Z,28.86
2018-08-23T10:54:23.487Z,28.81
2018-08-23T10:56:53.373Z,29.20
2018-08-23T10:59:23.044Z,29.52
2018-08-23T11:01:52.759Z,29.08
2018-08-23T11:04:22.354Z,28.74
2018-08-23T11:06:57.254Z,28.55
2018-08-23T11:09:32.483Z,28.25
2018-08-23T11:12:02.080Z,28.28
2018-08-23T11:14:36.717Z,28.24
2018-08-23T11:17:11.954Z,28.43
2018-08-23T11:19:46.733Z,28.27
2018-08-23T11:22:16.258Z,28.46
2018-08-23T11:24:45.789Z,28.80
2018-08-23T11:27:15.407Z,28.84
2018-08-23T11:29:45.091Z,28.84
2018-08-23T11:32:14.711Z,28.87
2018-08-23T11:34:44.257Z,28.77
2018-08-23T11:37:14.008Z,28.86
2018-08-23T11:39:46.698Z,28.85
2018-08-23T11:42:16.206Z,28.99
2018-08-23T11:44:45.850Z,29.13
2018-08-23T11:47:15.427Z,29.26
2018-08-23T11:49:44.990Z,29.03
2018-08-23T11:52:14.603Z,28.94
2018-08-23T11:54:44.552Z,28.97
2018-08-23T11:57:14.124Z,28.93
2018-08-23T11:59:44.058Z,28.67
2018-08-23T12:02:13.702Z,28.40
2018-08-23T12:04:43.626Z,28.56
2018-08-23T12:07:16.834Z,28.34
2018-08-23T12:09:46.414Z,28.38
2018-08-23T12:12:16.602Z,28.23
2018-08-23T12:14:49.406Z,28.10
2018-08-23T12:17:19.009Z,28.32
2018-08-23T12:20:03.689Z,28.41
2018-08-23T12:22:38.538Z,28.38
2018-08-23T12:25:08.259Z,28.38
2018-08-23T12:27:38.425Z,28.36
2018-08-23T12:30:08.712Z,28.54
2018-08-23T12:32:38.807Z,28.79
2018-08-23T12:35:08.972Z,28.65
2018-08-23T12:37:43.730Z,28.73
2018-08-23T12:40:18.782Z,28.67
2018-08-23T12:42:50.078Z,28.82
2018-08-23T12:45:20.143Z,28.95
2018-08-23T12:47:50.052Z,28.98
2018-08-23T12:50:19.838Z,29.05
2018-08-23T12:52:51.361Z,29.23
2018-08-23T12:55:21.007Z,29.06
2018-08-23T12:57:50.593Z,29.07
2018-08-23T13:00:20.877Z,29.11
2018-08-23T13:02:50.492Z,29.07
2018-08-23T13:05:20.341Z,28.93
2018-08-23T13:07:50.036Z,28.94
2018-08-23T13:10:19.776Z,28.99
2018-08-23T13:12:49.414Z,28.96
2018-08-23T13:15:19.175Z,29.00
2018-08-23T13:17:48.730Z,28.98
2018-08-23T13:20:18.624Z,29.12
2018-08-23T13:22:48.233Z,29.15
2018-08-23T13:25:17.833Z,29.16
2018-08-23T13:27:47.377Z,29.24
2018-08-23T13:30:17.033Z,29.21
2018-08-23T13:32:46.811Z,29.10
2018-08-23T13:35:16.456Z,29.11
2018-08-23T13:37:46.693Z,29.13
2018-08-23T13:40:16.267Z,29.11
2018-08-23T13:42:46.630Z,29.22
2018-08-23T13:45:16.857Z,29.21
2018-08-23T13:47:46.856Z,29.12
2018-08-23T13:50:16.426Z,29.13
2018-08-23T13:52:46.198Z,29.15
2018-08-23T13:55:15.897Z,29.06
2018-08-23T13:57:45.418Z,29.02
2018-08-23T14:00:20.238Z,29.19
2018-08-23T14:02:49.983Z,29.13
2018-08-23T14:05:19.538Z,29.14
2018-08-23T14:07:49.193Z,29.00
2018-08-23T14:10:19.180Z,29.04
2018-08-23T14:12:49.018Z,28.86
2018-08-23T14:15:24.392Z,28.92
2018-08-23T14:17:54.026Z,28.87
2018-08-23T14:20:23.537Z,28.92
2018-08-23T14:22:53.077Z,28.82
2018-08-23T14:25:22.766Z,28.79
2018-08-23T14:27:52.306Z,28.74
2018-08-23T14:30:22.032Z,28.76
2018-08-23T14:32:51.903Z,28.53
2018-08-23T14:35:21.679Z,28.35
2018-08-23T14:37:51.248Z,28.27
2018-08-23T14:40:21.165Z,28.18
2018-08-23T14:42:51.050Z,28.32
2018-08-23T14:45:26.142Z,28.40
2018-08-23T14:48:00.882Z,28.55
2018-08-23T14:50:30.532Z,28.57
2018-08-23T14:53:00.046Z,28.65
2018-08-23T14:55:35.069Z,28.54
2018-08-23T14:58:04.879Z,28.49
2018-08-23T15:00:35.314Z,28.57
2018-08-23T15:03:04.854Z,28.57
2018-08-23T15:05:34.832Z,28.57
2018-08-23T15:08:04.403Z,28.48
2018-08-23T15:10:34.155Z,28.43
2018-08-23T15:13:03.853Z,28.32
2018-08-23T15:15:39.109Z,28.28
2018-08-23T15:18:08.727Z,28.43
2018-08-23T15:20:39.267Z,28.49
2018-08-23T15:23:11.504Z,28.52
2018-08-23T15:25:41.326Z,28.43
2018-08-23T15:28:10.968Z,28.33
2018-08-23T15:30:41.447Z,28.28
2018-08-23T15:33:11.191Z,28.35
2018-08-23T15:35:42.469Z,28.32
2018-08-23T15:38:16.167Z,28.15
2018-08-23T15:40:51.112Z,28.03
2018-08-23T15:43:25.557Z,28.08
2018-08-23T15:45:55.469Z,28.12
2018-08-23T15:48:30.709Z,28.19
2018-08-23T15:51:00.270Z,28.16
2018-08-23T15:53:30.894Z,28.10
2018-08-23T15:56:07.860Z,28.09
2018-08-23T15:58:38.711Z,27.99
2018-08-23T16:01:11.229Z,27.79
2018-08-23T16:03:43.355Z,27.81
2018-08-23T16:06:13.006Z,27.73
2018-08-23T16:08:48.181Z,27.73
2018-08-23T16:11:18.042Z,27.78
2018-08-23T16:13:48.939Z,27.92
2018-08-23T16:16:28.365Z,27.92
2018-08-23T16:21:10.991Z,27.83
2018-08-23T16:23:41.538Z,27.54
2018-08-23T16:26:11.328Z,27.45
2018-08-23T16:28:42.629Z,27.32
2018-08-23T16:31:14.525Z,27.33
2018-08-23T16:33:45.127Z,27.32
2018-08-23T16:36:15.432Z,27.28
2018-08-23T16:38:45.307Z,27.26
2018-08-23T16:41:14.876Z,27.14
2018-08-23T16:43:44.529Z,26.98
2018-08-23T16:46:14.157Z,26.97
2018-08-23T16:48:44.049Z,26.79
2018-08-23T16:51:13.730Z,26.64
2018-08-23T16:53:44.005Z,26.64
2018-08-23T16:56:14.119Z,26.49
2018-08-23T16:58:43.745Z,26.49
2018-08-23T17:01:13.943Z,26.49
2018-08-23T17:03:51.643Z,26.57
2018-08-23T17:06:23.017Z,26.57
2018-08-23T17:08:52.777Z,26.34
2018-08-23T17:11:22.399Z,26.32
2018-08-23T17:13:51.943Z,26.28
2018-08-23T17:16:29.177Z,26.20
2018-08-23T17:18:58.913Z,26.07
2018-08-23T17:21:28.485Z,26.02
2018-08-23T17:23:58.083Z,26.03
2018-08-23T17:26:27.851Z,26.12
2018-08-23T17:28:57.583Z,25.93
2018-08-23T17:31:27.167Z,25.94
2018-08-23T17:33:56.811Z,25.93
2018-08-23T17:36:27.132Z,25.91
2018-08-23T17:38:56.718Z,25.77
2018-08-23T17:41:26.526Z,25.72
2018-08-23T17:43:56.309Z,25.78
2018-08-23T17:46:25.921Z,25.81
2018-08-23T17:48:55.637Z,25.70
2018-08-23T17:51:25.444Z,25.69
2018-08-23T17:53:55.708Z,25.67
2018-08-23T17:56:25.653Z,25.65
2018-08-23T17:58:55.278Z,25.59
2018-08-23T18:01:24.966Z,25.42
2018-08-23T18:03:54.511Z,25.35
2018-08-23T18:06:24.219Z,25.26
2018-08-23T18:08:54.021Z,25.22
2018-08-23T18:11:23.779Z,25.17
2018-08-23T18:13:53.856Z,25.17
2018-08-23T18:16:28.787Z,25.15
2018-08-23T18:18:58.367Z,25.03
2018-08-23T18:21:28.036Z,24.97
2018-08-23T18:23:57.627Z,24.84
2018-08-23T18:26:27.202Z,24.82
2018-08-23T18:28:57.566Z,24.86
2018-08-23T18:31:27.114Z,24.69
2018-08-23T18:43:03.974Z,24.50
2018-08-23T18:45:33.945Z,24.42
2018-08-23T18:48:03.638Z,24.40
2018-08-23T18:50:33.193Z,24.52
2018-08-23T18:53:02.724Z,24.46
2018-08-23T18:55:32.410Z,24.28
2018-08-23T18:58:02.326Z,24.38
2018-08-23T19:00:32.194Z,24.47
2018-08-23T19:03:01.818Z,24.49
2018-08-23T19:05:31.482Z,24.32
2018-08-23T19:08:01.250Z,24.46
2018-08-23T19:10:30.960Z,24.40
2018-08-23T19:13:00.578Z,24.29
2018-08-23T19:15:35.596Z,24.41
2018-08-23T19:18:05.349Z,24.29
2018-08-23T19:20:34.981Z,24.16
2018-08-23T19:23:04.651Z,24.09
2018-08-23T19:25:34.134Z,24.06
2018-08-23T19:28:03.795Z,24.07
2018-08-23T19:30:33.458Z,24.13
2018-08-23T19:33:03.402Z,24.21
2018-08-23T19:35:32.918Z,24.27
2018-08-23T19:38:02.628Z,24.29
2018-08-23T19:40:32.597Z,24.10
2018-08-23T19:43:02.796Z,24.15
2018-08-23T19:45:44.004Z,24.18
2018-08-23T19:48:13.672Z,24.18
2018-08-23T19:50:43.486Z,24.23
2018-08-23T19:53:14.011Z,24.29
2018-08-23T19:55:43.950Z,24.27
2018-08-23T19:58:13.559Z,24.29
2018-08-23T20:00:43.602Z,24.24
2018-08-23T20:03:13.789Z,24.18
2018-08-23T20:05:48.133Z,24.15
2018-08-23T20:08:18.535Z,24.14
2018-08-23T20:10:48.477Z,24.11
2018-08-23T20:13:18.085Z,24.10
2018-08-23T20:15:49.958Z,23.97
2018-08-23T20:18:20.040Z,23.98
2018-08-23T20:20:55.730Z,23.98
2018-08-23T20:23:25.666Z,23.95
2018-08-23T20:25:55.462Z,23.96
2018-08-23T20:28:25.373Z,23.92
2018-08-23T20:30:55.300Z,23.91
2018-08-23T20:33:25.126Z,23.90
2018-08-23T20:35:54.683Z,23.83
2018-08-23T20:38:24.372Z,23.84
2018-08-23T20:40:53.906Z,23.83
2018-08-23T20:43:23.727Z,23.81
2018-08-23T20:45:53.399Z,23.78
2018-08-23T20:48:23.333Z,23.70
2018-08-23T20:50:54.768Z,23.64
2018-08-23T20:53:24.377Z,23.53
2018-08-23T20:55:54.016Z,23.48
2018-08-23T20:58:23.576Z,23.47
2018-08-23T21:00:53.121Z,23.40
2018-08-23T21:03:22.655Z,23.41
2018-08-23T21:05:52.132Z,23.38
2018-08-23T21:08:21.724Z,23.33
2018-08-23T21:10:51.383Z,23.27
2018-08-23T21:13:25.360Z,23.23
2018-08-23T21:15:54.918Z,23.21
2018-08-23T21:18:24.464Z,23.18
2018-08-23T21:20:53.961Z,23.15
2018-08-23T21:23:23.512Z,23.10
2018-08-23T21:25:53.005Z,23.07
2018-08-23T21:28:22.522Z,23.04
2018-08-23T21:30:52.373Z,22.99
2018-08-23T21:33:21.942Z,22.93
2018-08-23T21:35:51.474Z,22.94
2018-08-23T21:38:21.393Z,22.90
2018-08-23T21:40:51.173Z,22.88
2018-08-23T21:43:20.806Z,22.92
2018-08-23T21:45:50.389Z,22.72
2018-08-23T21:48:29.803Z,22.78
2018-08-23T21:50:59.754Z,22.78
2018-08-23T21:53:29.339Z,22.79
2018-08-23T21:55:59.069Z,22.52
2018-08-23T21:58:28.660Z,22.75
2018-08-23T22:01:09.731Z,22.71
2018-08-23T22:03:39.926Z,22.67
2018-08-23T22:06:09.499Z,22.65
2018-08-23T22:08:39.030Z,22.61
2018-08-23T22:11:11.469Z,22.58
2018-08-23T22:13:41.066Z,22.56
2018-08-23T22:16:11.122Z,22.55
2018-08-23T22:18:40.754Z,22.55
2018-08-23T22:21:10.303Z,22.55
2018-08-23T22:23:40.468Z,22.51
2018-08-23T22:26:10.021Z,22.51
2018-08-23T22:28:39.574Z,22.43
2018-08-23T22:31:09.420Z,22.44
2018-08-23T22:33:39.095Z,22.39
2018-08-23T22:36:08.586Z,22.39
2018-08-23T22:38:38.203Z,22.38
2018-08-23T22:41:07.692Z,22.35
2018-08-23T22:43:37.182Z,22.35
2018-08-23T22:46:06.725Z,22.36
2018-08-23T22:48:36.254Z,22.34
2018-08-23T22:51:06.493Z,22.32
2018-08-23T22:53:36.068Z,22.33
2018-08-23T22:56:05.820Z,22.29
2018-08-23T22:58:35.488Z,22.29
2018-08-23T23:01:05.037Z,22.30
2018-08-23T23:03:39.718Z,22.29
2018-08-23T23:06:09.285Z,22.26
2018-08-23T23:08:38.808Z,22.26
2018-08-23T23:11:08.901Z,22.26
2018-08-23T23:13:38.430Z,22.20
2018-08-23T23:16:07.950Z,22.20
2018-08-23T23:18:37.718Z,22.20
2018-08-23T23:21:07.269Z,22.17
2018-08-23T23:23:37.940Z,22.14
2018-08-23T23:26:07.941Z,22.14
2018-08-23T23:28:37.527Z,22.12
2018-08-23T23:31:07.074Z,22.07
2018-08-23T23:33:36.624Z,22.07
2018-08-23T23:36:06.239Z,22.04
2018-08-23T23:38:35.771Z,22.03
2018-08-23T23:41:05.615Z,22.04
2018-08-23T23:43:35.133Z,22.02
2018-08-23T23:46:04.635Z,21.99
2018-08-23T23:48:34.739Z,22.03
2018-08-23T23:51:04.883Z,22.00
2018-08-23T23:53:34.680Z,22.00
2018-08-23T23:56:04.613Z,22.01
2018-08-23T23:58:34.116Z,21.92
